Time;durP1;ratioP1;P1;durP2;ratioP2;P2;SDS_P1;SDS_P2;PMS_P1;PMS_P2;Temp;Humidity;BMP_temperature;BMP_pressure;BME280_temperature;BME280_humidity;BME280_pressure;Samples;Min_cycle;Max_cycle;Signal;HPM_P1;HPM_P2
2022/10/12 00:02:24;;;;;;;4.18;3.53;;;9.00;57.80;;;;;;4796270;29;20093;-55
2022/10/12 00:04:52;;;;;;;4.97;2.95;;;9.00;57.90;;;;;;4801189;29;20107;-55
2022/10/12 00:07:19;;;;;;;5.15;3.13;;;9.00;57.90;;;;;;4803685;29;20074;-56
2022/10/12 00:09:47;;;;;;;4.55;2.78;;;9.00;58.00;;;;;;4804392;29;20046;-56
2022/10/12 00:12:19;;;;;;;3.67;2.85;;;9.00;58.00;;;;;;4800395;29;20054;-55
2022/10/12 00:14:48;;;;;;;3.90;2.88;;;9.00;57.90;;;;;;4803647;29;20077;-56
2022/10/12 00:17:15;;;;;;;4.93;3.35;;;9.00;57.90;;;;;;4808012;29;20053;-54
2022/10/12 00:19:42;;;;;;;8.20;3.42;;;9.00;57.90;;;;;;4814358;29;20054;-56
2022/10/12 00:22:12;;;;;;;6.35;3.15;;;9.00;58.00;;;;;;4796415;29;20046;-55
2022/10/12 00:24:46;;;;;;;4.80;3.47;;;8.90;57.90;;;;;;4803387;29;20054;-55
2022/10/12 00:27:13;;;;;;;4.90;3.22;;;8.90;58.20;;;;;;4804077;29;20050;-55
2022/10/12 00:29:43;;;;;;;6.78;3.90;;;8.90;57.90;;;;;;4801026;29;20129;-53
2022/10/12 00:32:15;;;;;;;4.00;3.60;;;8.90;58.00;;;;;;4800503;29;20527;-55
2022/10/12 00:34:42;;;;;;;6.10;4.13;;;8.90;58.00;;;;;;4805525;29;20058;-55
2022/10/12 00:37:10;;;;;;;4.97;3.67;;;8.90;58.10;;;;;;4820798;29;20057;-51
2022/10/12 00:39:47;;;;;;;4.82;3.75;;;8.80;58.10;;;;;;4800726;29;20050;-55
2022/10/12 00:42:13;;;;;;;4.10;3.70;;;8.90;58.10;;;;;;4803599;29;20047;-56
2022/10/12 00:44:45;;;;;;;5.88;3.80;;;8.80;58.20;;;;;;4802934;29;20054;-56
2022/10/12 00:47:28;;;;;;;4.90;3.63;;;8.80;58.30;;;;;;4803796;29;20720;-54
2022/10/12 00:50:06;;;;;;;4.88;3.33;;;8.80;58.30;;;;;;4801645;29;20051;-56
2022/10/12 00:53:08;;;;;;;4.65;3.75;;;8.80;58.60;;;;;;4803327;29;20424;-55
2022/10/12 00:55:44;;;;;;;5.83;3.80;;;8.80;59.30;;;;;;4806912;29;20065;-56
2022/10/12 00:58:14;;;;;;;5.82;3.97;;;8.80;58.60;;;;;;4800164;29;20063;-55
2022/10/12 01:00:43;;;;;;;5.82;3.67;;;8.80;58.40;;;;;;4802226;29;20057;-56
2022/10/12 01:03:12;;;;;;;7.55;4.10;;;8.80;58.50;;;;;;4803342;29;20134;-56
2022/10/12 01:05:39;;;;;;;5.35;3.45;;;8.80;58.60;;;;;;4801498;29;20075;-56
2022/10/12 01:08:06;;;;;;;5.22;3.70;;;8.80;58.60;;;;;;4800874;29;20041;-56
2022/10/12 01:10:34;;;;;;;7.90;4.20;;;8.80;58.70;;;;;;4801896;29;20061;-55
2022/10/12 01:13:01;;;;;;;5.57;4.18;;;8.80;58.60;;;;;;4803186;29;20053;-56
2022/10/12 01:15:34;;;;;;;4.68;3.67;;;8.80;58.70;;;;;;4785664;29;20051;-56
2022/10/12 01:18:28;;;;;;;5.57;3.75;;;8.80;58.90;;;;;;4793987;29;20055;-56
2022/10/12 01:21:12;;;;;;;7.25;4.22;;;8.80;59.40;;;;;;4801400;29;20061;-56
2022/10/12 01:24:20;;;;;;;6.43;4.43;;;8.70;58.80;;;;;;4802569;29;20134;-56
2022/10/12 01:27:06;;;;;;;6.82;5.13;;;8.70;59.20;;;;;;4798803;29;20074;-56
2022/10/12 01:30:11;;;;;;;6.93;4.38;;;8.70;59.30;;;;;;4798819;29;20516;-51
2022/10/12 01:32:54;;;;;;;7.05;5.00;;;8.70;59.70;;;;;;4799495;29;20062;-56
2022/10/12 01:35:29;;;;;;;7.57;5.15;;;8.80;59.70;;;;;;4810424;29;20436;-55
2022/10/12 01:38:33;;;;;;;8.02;4.68;;;8.80;59.10;;;;;;4796474;29;20069;-56
2022/10/12 01:41:10;;;;;;;6.53;4.18;;;8.80;59.80;;;;;;4803001;29;20050;-55
2022/10/12 01:43:42;;;;;;;7.00;5.18;;;8.80;59.30;;;;;;4802958;29;20053;-54
2022/10/12 01:46:12;;;;;;;5.47;4.82;;;8.80;59.10;;;;;;4799724;29;20051;-55
2022/10/12 01:48:43;;;;;;;5.60;3.95;;;8.70;59.20;;;;;;4801194;29;20042;-56
2022/10/12 01:51:15;;;;;;;5.27;4.43;;;8.70;59.00;;;;;;4807003;29;20563;-55
2022/10/12 01:54:05;;;;;;;8.07;4.88;;;8.70;59.00;;;;;;4800732;29;20101;-56
2022/10/12 01:56:55;;;;;;;8.10;5.32;;;8.70;59.50;;;;;;4800171;29;20122;-56
2022/10/12 01:59:36;;;;;;;6.45;4.82;;;8.70;59.20;;;;;;4805974;29;20590;-56
2022/10/12 02:02:14;;;;;;;6.72;5.07;;;8.70;59.30;;;;;;4806529;29;20062;-55
2022/10/12 02:05:15;;;;;;;5.88;4.32;;;8.70;59.30;;;;;;4804244;29;20086;-56
2022/10/12 02:07:58;;;;;;;7.55;4.85;;;8.70;59.40;;;;;;4802728;29;20062;-55
2022/10/12 02:10:35;;;;;;;7.05;4.32;;;8.60;58.80;;;;;;4788494;29;20039;-56
2022/10/12 02:13:06;;;;;;;8.05;4.90;;;8.60;59.10;;;;;;4793819;29;20423;-54
2022/10/12 02:15:39;;;;;;;7.40;4.85;;;8.60;59.00;;;;;;4803019;29;20520;-56
2022/10/12 02:18:10;;;;;;;9.07;5.05;;;8.60;59.00;;;;;;4805675;29;20050;-56
2022/10/12 02:20:41;;;;;;;7.57;4.70;;;8.60;59.00;;;;;;4820297;29;20074;-55
2022/10/12 02:23:09;;;;;;;6.25;5.15;;;8.50;59.00;;;;;;4808153;29;20049;-56
2022/10/12 02:25:37;;;;;;;6.22;4.65;;;8.50;59.10;;;;;;4805480;29;20043;-56
2022/10/12 02:28:15;;;;;;;8.23;5.20;;;8.50;59.10;;;;;;4805634;29;20065;-55
2022/10/12 02:30:57;;;;;;;7.47;5.53;;;8.50;59.60;;;;;;4804812;29;20046;-56
2022/10/12 02:33:41;;;;;;;7.40;5.32;;;8.50;59.50;;;;;;4799297;29;20047;-55
2022/10/12 02:36:18;;;;;;;7.68;5.28;;;8.50;59.30;;;;;;4808137;29;20045;-56
2022/10/12 02:39:09;;;;;;;7.82;5.70;;;8.40;59.20;;;;;;4804546;29;20129;-56
2022/10/12 02:41:42;;;;;;;6.93;5.75;;;8.40;59.80;;;;;;4803471;29;20528;-56
2022/10/12 02:44:15;;;;;;;7.28;5.55;;;8.40;59.30;;;;;;4802836;29;20129;-56
2022/10/12 02:46:47;;;;;;;8.48;5.75;;;8.40;59.30;;;;;;4805197;29;20055;-55
2022/10/12 02:49:24;;;;;;;10.40;6.13;;;8.40;59.30;;;;;;4803534;29;20057;-56
2022/10/12 02:51:51;;;;;;;8.00;5.60;;;8.40;59.40;;;;;;4798498;29;20058;-55
2022/10/12 02:54:30;;;;;;;10.20;6.00;;;8.40;59.30;;;;;;4805258;29;20045;-56
2022/10/12 02:57:00;;;;;;;8.38;5.88;;;8.30;59.30;;;;;;4805274;29;20055;-56
2022/10/12 02:59:27;;;;;;;7.75;5.15;;;8.30;59.50;;;;;;4805364;29;20771;-55
2022/10/12 03:01:54;;;;;;;9.80;6.57;;;8.30;59.30;;;;;;4800029;29;20428;-55
2022/10/12 03:04:25;;;;;;;6.03;5.35;;;8.30;59.30;;;;;;4805061;29;20054;-55
2022/10/12 03:06:52;;;;;;;5.88;5.28;;;8.30;59.40;;;;;;4804442;29;20058;-55
2022/10/12 03:09:21;;;;;;;8.85;6.25;;;8.30;59.20;;;;;;4802219;29;20796;-54
2022/10/12 03:11:48;;;;;;;8.85;5.65;;;8.20;59.30;;;;;;4801023;29;20043;-55
2022/10/12 03:14:21;;;;;;;7.55;5.35;;;8.20;59.20;;;;;;4804736;29;20125;-56
2022/10/12 03:16:48;;;;;;;8.52;5.72;;;8.20;59.40;;;;;;4805473;29;20731;-56
2022/10/12 03:19:14;;;;;;;6.15;5.47;;;8.20;59.30;;;;;;4805907;29;20050;-55
2022/10/12 03:21:41;;;;;;;7.63;5.32;;;8.20;59.40;;;;;;4804394;29;20081;-55
2022/10/12 03:24:14;;;;;;;9.30;5.22;;;8.10;59.40;;;;;;4804731;29;20152;-55
2022/10/12 03:26:46;;;;;;;9.88;5.70;;;8.20;59.40;;;;;;4804713;29;20043;-56
2022/10/12 03:29:17;;;;;;;8.27;5.38;;;8.10;59.30;;;;;;4799534;29;20116;-56
2022/10/12 03:31:43;;;;;;;5.53;5.03;;;8.10;59.30;;;;;;4805044;29;20061;-55
2022/10/12 03:34:10;;;;;;;9.25;5.63;;;8.10;59.40;;;;;;4804052;29;20134;-54
2022/10/12 03:36:39;;;;;;;7.28;5.32;;;8.10;59.50;;;;;;4811713;29;20116;-55
2022/10/12 03:39:15;;;;;;;6.32;5.65;;;8.10;59.60;;;;;;4804402;29;20053;-55
2022/10/12 03:41:42;;;;;;;7.32;5.63;;;8.10;59.60;;;;;;4804650;29;20047;-56
2022/10/12 03:44:08;;;;;;;6.25;5.20;;;8.00;59.70;;;;;;4803567;29;20477;-54
2022/10/12 03:46:37;;;;;;;7.43;5.40;;;8.00;59.70;;;;;;4801798;29;20051;-55
2022/10/12 03:49:07;;;;;;;6.72;5.45;;;8.00;59.80;;;;;;4802435;29;20043;-55
2022/10/12 03:51:36;;;;;;;9.93;5.43;;;8.00;59.80;;;;;;4804076;29;20058;-53
2022/10/12 03:54:05;;;;;;;6.05;4.50;;;8.00;59.80;;;;;;4804273;29;20051;-55
2022/10/12 03:56:34;;;;;;;7.72;5.95;;;8.00;59.80;;;;;;4801625;29;20054;-56
2022/10/12 03:59:08;;;;;;;7.82;5.15;;;8.00;59.80;;;;;;4803804;29;20050;-55
2022/10/12 04:01:35;;;;;;;7.88;5.15;;;8.00;59.90;;;;;;4804360;29;20047;-55
2022/10/12 04:04:04;;;;;;;6.20;4.90;;;8.00;59.90;;;;;;4800418;29;20080;-56
2022/10/12 04:06:31;;;;;;;6.28;5.10;;;8.00;60.00;;;;;;4797761;29;20046;-55
2022/10/12 04:08:57;;;;;;;5.85;4.60;;;8.00;60.10;;;;;;4803147;29;20440;-55
2022/10/12 04:11:24;;;;;;;6.63;5.20;;;8.00;60.10;;;;;;4803418;29;20050;-56
2022/10/12 04:13:51;;;;;;;5.82;5.25;;;8.00;60.80;;;;;;4803201;29;20039;-56
2022/10/12 04:16:17;;;;;;;6.95;6.10;;;8.00;60.20;;;;;;4803538;29;20523;-55
2022/10/12 04:18:44;;;;;;;6.97;5.63;;;8.00;60.20;;;;;;4809185;29;20065;-54
2022/10/12 04:21:15;;;;;;;8.27;5.22;;;8.00;60.20;;;;;;4800880;29;20066;-57
2022/10/12 04:23:42;;;;;;;11.00;6.00;;;7.90;60.30;;;;;;4805610;29;20069;-54
2022/10/12 04:26:09;;;;;;;8.38;5.13;;;7.90;60.10;;;;;;4801985;29;20050;-54
2022/10/12 04:28:35;;;;;;;8.95;6.65;;;7.90;60.10;;;;;;4802060;29;20054;-55
2022/10/12 04:31:02;;;;;;;14.75;6.68;;;7.90;60.30;;;;;;4803384;29;20074;-54
2022/10/12 04:33:29;;;;;;;9.48;6.07;;;7.90;60.10;;;;;;4803397;29;20051;-55
2022/10/12 04:35:55;;;;;;;7.35;5.63;;;7.90;60.10;;;;;;4802703;29;20381;-55
2022/10/12 04:38:22;;;;;;;9.88;6.60;;;7.80;60.00;;;;;;4807526;29;20085;-55
2022/10/12 04:40:49;;;;;;;10.25;6.35;;;7.80;60.00;;;;;;4806315;29;20137;-53
2022/10/12 04:43:16;;;;;;;8.68;6.50;;;7.80;60.10;;;;;;4803520;29;20504;-55
2022/10/12 04:45:43;;;;;;;7.68;5.63;;;7.80;60.20;;;;;;4799353;29;20145;-55
2022/10/12 04:48:10;;;;;;;11.90;6.90;;;7.80;60.20;;;;;;4801214;29;20409;-55
2022/10/12 04:50:36;;;;;;;8.68;6.35;;;7.80;60.20;;;;;;4800835;29;20051;-53
2022/10/12 04:53:03;;;;;;;11.32;6.82;;;7.70;60.10;;;;;;4800312;29;20416;-56
2022/10/12 04:55:29;;;;;;;9.52;7.38;;;7.70;60.20;;;;;;4800642;29;20061;-56
2022/10/12 04:57:56;;;;;;;10.35;6.72;;;7.70;60.20;;;;;;4801149;29;20053;-55
2022/10/12 05:00:23;;;;;;;8.63;6.60;;;7.70;60.10;;;;;;4799729;29;20559;-54
2022/10/12 05:02:49;;;;;;;9.38;5.88;;;7.60;60.00;;;;;;4793320;29;20125;-55
2022/10/12 05:05:16;;;;;;;10.63;6.78;;;7.60;60.80;;;;;;4794163;29;20057;-55
2022/10/12 05:07:43;;;;;;;9.38;6.95;;;7.60;60.10;;;;;;4800873;29;20415;-56
2022/10/12 05:10:09;;;;;;;8.73;6.68;;;7.60;60.10;;;;;;4801629;29;20053;-55
2022/10/12 05:12:36;;;;;;;9.43;6.85;;;7.60;60.20;;;;;;4795004;29;20134;-54
2022/10/12 05:15:03;;;;;;;7.80;6.47;;;7.60;60.20;;;;;;4798573;29;20573;-53
2022/10/12 05:17:30;;;;;;;10.18;7.28;;;7.60;60.20;;;;;;4805699;29;20099;-55
2022/10/12 05:19:57;;;;;;;10.52;7.03;;;7.50;60.10;;;;;;4799096;29;20071;-55
2022/10/12 05:22:24;;;;;;;9.93;6.53;;;7.50;60.10;;;;;;4795844;29;20134;-55
2022/10/12 05:24:50;;;;;;;9.38;6.50;;;7.50;60.10;;;;;;4801738;29;20047;-55
2022/10/12 05:27:19;;;;;;;10.88;6.38;;;7.50;60.00;;;;;;4800782;29;20408;-54
2022/10/12 05:29:46;;;;;;;8.57;6.80;;;7.50;60.10;;;;;;4804833;29;20074;-55
2022/10/12 05:32:13;;;;;;;7.82;5.50;;;7.40;60.00;;;;;;4804112;29;20051;-55
2022/10/12 05:34:41;;;;;;;7.28;5.43;;;7.40;60.10;;;;;;4798290;29;20053;-55
2022/10/12 05:37:07;;;;;;;10.65;5.90;;;7.40;60.10;;;;;;4804059;29;20043;-50
2022/10/12 05:39:36;;;;;;;10.93;6.32;;;7.40;60.20;;;;;;4798565;29;20046;-55
2022/10/12 05:42:03;;;;;;;6.78;5.32;;;7.40;60.20;;;;;;4805598;29;20061;-55
2022/10/12 05:44:29;;;;;;;6.90;5.82;;;7.30;60.20;;;;;;4804087;29;20046;-54
2022/10/12 05:46:56;;;;;;;8.27;5.65;;;7.30;60.20;;;;;;4802243;29;20053;-54
2022/10/12 05:49:23;;;;;;;6.75;5.95;;;7.30;60.20;;;;;;4810855;29;20046;-56
2022/10/12 05:51:52;;;;;;;9.15;5.75;;;7.30;60.30;;;;;;4811195;29;20418;-51
2022/10/12 05:54:18;;;;;;;6.35;5.30;;;7.30;60.40;;;;;;4811034;29;20053;-55
2022/10/12 05:56:47;;;;;;;8.10;5.95;;;7.30;60.40;;;;;;4797326;29;20050;-55
2022/10/12 05:59:14;;;;;;;8.05;5.80;;;7.30;60.40;;;;;;4800442;29;20051;-55
2022/10/12 06:01:40;;;;;;;9.50;5.57;;;7.30;60.40;;;;;;4802109;29;20047;-53
2022/10/12 06:04:07;;;;;;;7.93;5.53;;;7.30;60.50;;;;;;4798661;29;20055;-55
2022/10/12 06:06:34;;;;;;;10.85;5.72;;;7.20;60.50;;;;;;4803917;29;20055;-55
2022/10/12 06:09:01;;;;;;;9.90;6.03;;;7.20;60.60;;;;;;4802160;29;20126;-55
2022/10/12 06:11:27;;;;;;;14.00;6.80;;;7.20;60.60;;;;;;4800701;29;20047;-54
2022/10/12 06:13:59;;;;;;;8.02;4.45;;;7.20;60.70;;;;;;4804482;29;20050;-55
2022/10/12 06:16:26;;;;;;;6.45;5.57;;;7.20;60.70;;;;;;4809930;29;20638;-55
2022/10/12 06:18:52;;;;;;;7.82;5.53;;;7.20;60.70;;;;;;4802283;29;20051;-56
2022/10/12 06:21:19;;;;;;;5.82;5.32;;;7.20;60.80;;;;;;4804929;29;20047;-52
2022/10/12 06:24:01;;;;;;;10.60;5.80;;;7.20;60.80;;;;;;4803791;29;20531;-55
2022/10/12 06:26:28;;;;;;;9.43;5.78;;;7.20;60.90;;;;;;4800406;29;20047;-56
2022/10/12 06:28:55;;;;;;;8.18;5.80;;;7.20;61.00;;;;;;4807217;29;20055;-54
2022/10/12 06:31:22;;;;;;;7.95;5.70;;;7.20;61.10;;;;;;4807632;29;20043;-55
2022/10/12 06:33:49;;;;;;;9.15;6.03;;;7.20;61.20;;;;;;4803850;29;20432;-53
2022/10/12 06:36:16;;;;;;;7.88;6.68;;;7.30;61.40;;;;;;4797959;29;20093;-55
2022/10/12 06:38:43;;;;;;;11.75;6.40;;;7.30;61.40;;;;;;4802282;29;20096;-54
2022/10/12 06:41:10;;;;;;;10.93;6.32;;;7.30;61.60;;;;;;4804726;29;20501;-55
2022/10/12 06:43:38;;;;;;;12.98;8.05;;;7.30;61.60;;;;;;4803052;29;20146;-56
2022/10/12 06:46:05;;;;;;;10.02;7.18;;;7.30;61.70;;;;;;4799448;29;20069;-55
2022/10/12 06:48:31;;;;;;;9.70;6.43;;;7.40;61.80;;;;;;4804186;29;20098;-55
2022/10/12 06:50:58;;;;;;;12.75;7.00;;;7.40;61.90;;;;;;4804132;29;20412;-53
2022/10/12 06:53:27;;;;;;;11.30;6.57;;;7.40;62.00;;;;;;4801724;29;20058;-54
2022/10/12 06:55:54;;;;;;;9.15;6.95;;;7.50;62.10;;;;;;4797489;29;20047;-55
2022/10/12 06:58:21;;;;;;;12.95;7.32;;;7.50;62.30;;;;;;4803190;29;20081;-55
2022/10/12 07:00:47;;;;;;;8.82;6.85;;;7.60;62.50;;;;;;4804185;29;20055;-54
2022/10/12 07:03:15;;;;;;;10.73;7.22;;;7.60;62.70;;;;;;4803948;29;20093;-55
2022/10/12 07:05:42;;;;;;;12.25;7.35;;;7.60;62.80;;;;;;4800940;29;20055;-54
2022/10/12 07:08:08;;;;;;;11.50;6.57;;;7.70;63.00;;;;;;4804040;29;20043;-55
2022/10/12 07:10:35;;;;;;;7.88;7.05;;;7.80;63.30;;;;;;4803821;29;20042;-55
2022/10/12 07:13:02;;;;;;;9.45;7.28;;;7.90;63.30;;;;;;4797962;29;20065;-56
2022/10/12 07:15:28;;;;;;;13.95;8.70;;;7.90;63.50;;;;;;4800905;29;20453;-51
2022/10/12 07:17:57;;;;;;;12.57;7.85;;;8.00;63.60;;;;;;4803641;29;20524;-55
2022/10/12 07:20:24;;;;;;;14.88;8.02;;;8.10;63.90;;;;;;4814170;29;20072;-54
2022/10/12 07:22:52;;;;;;;14.35;10.30;;;8.20;64.10;;;;;;4810180;29;20042;-55
2022/10/12 07:25:18;;;;;;;12.93;9.55;;;8.30;64.40;;;;;;4801987;29;20061;-53
2022/10/12 07:27:48;;;;;;;15.00;9.63;;;8.40;64.60;;;;;;4797349;29;20066;-55
2022/10/12 07:30:15;;;;;;;15.25;9.98;;;8.50;65.10;;;;;;4798088;29;20469;-53
2022/10/12 07:32:43;;;;;;;15.10;9.23;;;8.60;65.10;;;;;;4799351;29;20043;-56
2022/10/12 07:35:10;;;;;;;15.65;9.45;;;8.80;65.20;;;;;;4803215;29;20559;-54
2022/10/12 07:37:36;;;;;;;15.02;9.93;;;8.80;65.20;;;;;;4803766;29;20046;-56
2022/10/12 07:40:04;;;;;;;18.15;9.40;;;9.00;65.40;;;;;;4803962;29;20570;-53
2022/10/12 07:42:33;;;;;;;17.52;9.93;;;9.10;65.50;;;;;;4800421;29;20049;-55
2022/10/12 07:44:59;;;;;;;17.13;11.05;;;9.20;65.60;;;;;;4802673;29;20065;-55
2022/10/12 07:47:26;;;;;;;14.15;10.95;;;9.30;65.60;;;;;;4809399;29;20142;-56
2022/10/12 07:49:53;;;;;;;16.70;9.77;;;9.40;65.60;;;;;;4802415;29;20527;-54
2022/10/12 07:52:19;;;;;;;14.55;9.02;;;9.50;65.60;;;;;;4797885;29;20047;-55
2022/10/12 07:54:46;;;;;;;13.88;8.77;;;9.60;65.70;;;;;;4801153;29;20046;-56
2022/10/12 07:57:15;;;;;;;13.68;9.30;;;9.70;65.60;;;;;;4805264;29;20129;-55
2022/10/12 07:59:42;;;;;;;15.75;9.43;;;9.90;65.80;;;;;;4806901;29;20055;-55
2022/10/12 08:02:10;;;;;;;16.92;9.73;;;10.00;65.90;;;;;;4797199;29;20046;-55
2022/10/12 08:04:37;;;;;;;17.15;9.23;;;10.10;66.00;;;;;;4802886;29;20396;-55
2022/10/12 08:07:04;;;;;;;11.48;9.80;;;10.20;65.90;;;;;;4799603;29;20066;-55
2022/10/12 08:09:30;;;;;;;16.20;9.77;;;10.20;65.80;;;;;;4801168;29;20047;-55
2022/10/12 08:11:57;;;;;;;17.23;10.48;;;10.40;66.00;;;;;;4800354;29;20042;-55
2022/10/12 08:14:24;;;;;;;20.83;10.52;;;10.50;66.00;;;;;;4802455;29;20050;-53
2022/10/12 08:16:50;;;;;;;14.75;9.57;;;10.60;66.10;;;;;;4805107;29;20050;-55
2022/10/12 08:19:17;;;;;;;19.95;10.45;;;10.70;66.20;;;;;;4806350;29;20046;-54
2022/10/12 08:21:44;;;;;;;16.70;9.45;;;10.80;66.30;;;;;;4801587;29;20050;-54
2022/10/12 08:24:11;;;;;;;14.65;9.68;;;10.80;66.30;;;;;;4798772;29;20047;-55
2022/10/12 08:26:38;;;;;;;18.33;10.55;;;10.90;66.30;;;;;;4802719;29;20060;-55
2022/10/12 08:29:06;;;;;;;22.40;10.18;;;11.00;66.20;;;;;;4799407;29;20504;-56
2022/10/12 08:31:35;;;;;;;17.05;9.77;;;11.00;66.20;;;;;;4798276;29;20047;-56
2022/10/12 08:34:03;;;;;;;17.85;11.13;;;11.10;66.00;;;;;;4802375;29;20074;-55
2022/10/12 08:36:29;;;;;;;17.25;11.07;;;11.10;66.10;;;;;;4802785;29;20047;-54
2022/10/12 08:38:56;;;;;;;15.75;9.63;;;11.10;66.10;;;;;;4799390;29;20703;-56
2022/10/12 08:41:46;;;;;;;14.77;10.48;;;11.10;65.90;;;;;;4802771;29;20047;-55
2022/10/12 08:44:30;;;;;;;18.52;9.85;;;11.20;67.10;;;;;;4784354;29;20043;-56
2022/10/12 08:47:16;;;;;;;15.13;10.38;;;11.20;66.80;;;;;;4787599;29;20053;-55
2022/10/12 08:49:44;;;;;;;21.50;9.75;;;11.20;66.40;;;;;;4802099;29;20500;-55
2022/10/12 08:52:29;;;;;;;15.57;9.95;;;11.20;66.10;;;;;;4802734;29;20408;-55
2022/10/12 08:55:17;;;;;;;13.32;8.65;;;11.20;66.90;;;;;;4801814;29;20074;-57
2022/10/12 08:57:43;;;;;;;12.85;7.50;;;11.20;66.70;;;;;;4801130;29;20047;-56
2022/10/12 09:00:16;;;;;;;16.45;9.07;;;11.20;66.40;;;;;;4794199;29;20074;-56
2022/10/12 09:02:57;;;;;;;18.15;8.90;;;11.20;66.50;;;;;;4801475;29;20062;-54
2022/10/12 09:05:39;;;;;;;13.60;8.85;;;11.20;66.60;;;;;;4802043;29;20050;-56
2022/10/12 09:08:18;;;;;;;14.55;10.02;;;11.20;67.40;;;;;;4797853;29;20546;-55
2022/10/12 09:10:53;;;;;;;15.43;9.23;;;11.30;67.10;;;;;;4801975;29;20523;-53
2022/10/12 09:13:38;;;;;;;14.00;10.93;;;11.30;66.90;;;;;;4803387;29;20100;-55
2022/10/12 09:16:27;;;;;;;16.50;10.27;;;11.30;68.00;;;;;;4798835;29;20652;-55
2022/10/12 09:19:32;;;;;;;13.30;9.13;;;11.40;68.40;;;;;;4799526;29;20504;-55
2022/10/12 09:22:01;;;;;;;17.98;9.27;;;11.40;68.30;;;;;;4799013;29;20077;-55
2022/10/12 09:24:33;;;;;;;14.57;9.25;;;11.50;67.30;;;;;;4794890;29;20528;-55
2022/10/12 09:27:11;;;;;;;16.80;9.27;;;11.50;67.60;;;;;;4797894;29;20061;-55
2022/10/12 09:29:39;;;;;;;15.95;9.15;;;11.50;67.60;;;;;;4802304;29;20043;-56
2022/10/12 09:32:28;;;;;;;10.65;8.38;;;11.60;67.40;;;;;;4801492;29;20065;-55
2022/10/12 09:34:56;;;;;;;14.07;9.13;;;11.70;67.80;;;;;;4801169;29;20039;-56
2022/10/12 09:37:28;;;;;;;15.13;10.10;;;11.70;67.10;;;;;;4801841;29;20047;-56
2022/10/12 09:39:56;;;;;;;13.77;9.00;;;11.80;67.40;;;;;;4800478;29;20050;-55
2022/10/12 09:42:23;;;;;;;15.20;9.23;;;11.80;67.20;;;;;;4798193;29;20066;-55
2022/10/12 09:45:15;;;;;;;14.13;9.85;;;11.90;67.30;;;;;;4810265;24;20085;-54
2022/10/12 09:48:09;;;;;;;15.80;9.98;;;11.90;68.30;;;;;;4802104;29;20524;-53
2022/10/12 09:50:49;;;;;;;12.32;7.95;;;12.00;68.00;;;;;;4801650;29;20444;-51
2022/10/12 09:53:30;;;;;;;15.90;9.00;;;12.10;67.70;;;;;;4801265;29;20419;-52
2022/10/12 09:56:04;;;;;;;12.75;8.30;;;12.10;67.30;;;;;;4798621;29;20051;-52
2022/10/12 09:58:56;;;;;;;12.90;8.90;;;12.20;68.00;;;;;;4802861;29;20051;-50
2022/10/12 10:01:25;;;;;;;14.70;8.53;;;12.20;67.20;;;;;;4801833;29;20543;-52
2022/10/12 10:04:13;;;;;;;17.30;9.57;;;12.30;66.80;;;;;;4792284;29;20658;-54
2022/10/12 10:06:42;;;;;;;13.00;7.45;;;12.40;67.90;;;;;;4798378;29;20050;-50
2022/10/12 10:09:28;;;;;;;14.48;8.77;;;12.40;66.70;;;;;;4804578;29;20051;-52
2022/10/12 10:11:56;;;;;;;20.55;11.20;;;12.50;67.60;;;;;;4801085;29;20051;-51
2022/10/12 10:14:23;;;;;;;11.00;7.65;;;12.60;67.00;;;;;;4804808;29;20512;-51
2022/10/12 10:16:53;;;;;;;12.40;7.35;;;12.60;66.70;;;;;;4806956;29;20107;-53
2022/10/12 10:19:23;;;;;;;15.20;7.38;;;12.60;66.70;;;;;;4809555;29;20046;-50
2022/10/12 10:21:52;;;;;;;8.15;5.90;;;12.70;66.80;;;;;;4800291;29;20053;-55
2022/10/12 10:24:26;;;;;;;12.35;6.43;;;12.80;66.50;;;;;;4805069;29;20051;-53
2022/10/12 10:27:02;;;;;;;12.43;6.53;;;12.90;66.40;;;;;;4802969;29;20050;-54
2022/10/12 10:29:33;;;;;;;16.80;6.63;;;12.90;66.20;;;;;;4804360;29;20047;-53
2022/10/12 10:32:13;;;;;;;12.53;6.03;;;13.00;65.90;;;;;;4799972;29;20047;-54
2022/10/12 10:34:41;;;;;;;8.57;4.97;;;13.10;65.90;;;;;;4804381;29;20063;-54
2022/10/12 10:37:18;;;;;;;10.00;5.38;;;13.20;65.70;;;;;;4804757;29;20057;-52
2022/10/12 10:39:50;;;;;;;6.72;4.82;;;13.20;65.70;;;;;;4796291;29;20556;-52
2022/10/12 10:42:20;;;;;;;7.28;4.10;;;13.30;64.90;;;;;;4797844;29;20519;-52
2022/10/12 10:44:55;;;;;;;10.52;4.38;;;13.40;64.90;;;;;;4803659;29;20055;-54
2022/10/12 10:47:22;;;;;;;7.63;3.97;;;13.50;64.40;;;;;;4803079;29;20099;-54
2022/10/12 10:49:53;;;;;;;5.05;4.10;;;13.50;64.10;;;;;;4802151;29;20503;-53
2022/10/12 10:52:21;;;;;;;6.85;3.90;;;13.60;63.50;;;;;;4810118;29;20043;-52
2022/10/12 10:54:48;;;;;;;10.07;4.22;;;13.80;63.50;;;;;;4819275;29;20526;-54
2022/10/12 10:57:17;;;;;;;6.38;3.85;;;13.80;63.20;;;;;;4802251;29;20078;-52
2022/10/12 10:59:49;;;;;;;5.88;4.15;;;13.90;62.70;;;;;;4799983;29;20114;-54
2022/10/12 11:02:24;;;;;;;6.53;3.65;;;14.00;62.50;;;;;;4803166;29;20066;-53
2022/10/12 11:05:16;;;;;;;8.77;3.30;;;14.10;62.20;;;;;;4803428;29;20627;-53
2022/10/12 11:07:48;;;;;;;;;;;14.20;62.50;;;;;;4797906;29;20043;-51
2022/10/12 11:10:41;;;;;;;6.30;3.35;;;14.30;62.50;;;;;;4802984;29;20403;-45
2022/10/12 11:13:22;;;;;;;7.35;2.90;;;14.40;62.50;;;;;;4803144;29;20055;-47
2022/10/12 11:16:17;;;;;;;7.18;3.10;;;14.50;61.60;;;;;;4797767;29;20423;-50
2022/10/12 11:18:49;;;;;;;7.78;3.40;;;14.50;61.30;;;;;;4791805;29;20063;-54
2022/10/12 11:21:41;;;;;;;6.25;2.78;;;14.60;61.40;;;;;;4803110;29;20095;-52
2022/10/12 11:24:17;;;;;;;6.75;3.65;;;14.70;60.70;;;;;;4802634;29;20077;-53
2022/10/12 11:27:08;;;;;;;7.90;3.95;;;14.80;60.60;;;;;;4801778;29;20497;-51
2022/10/12 11:29:35;;;;;;;5.15;3.10;;;14.90;60.90;;;;;;4799262;29;20424;-53
2022/10/12 11:32:06;;;;;;;6.15;3.75;;;15.00;60.80;;;;;;4802835;29;20046;-52
2022/10/12 11:34:46;;;;;;;6.95;3.05;;;15.00;60.60;;;;;;4802825;29;20049;-54
2022/10/12 11:37:17;;;;;;;5.10;3.38;;;15.20;60.20;;;;;;4795031;29;20043;-51
2022/10/12 11:39:50;;;;;;;7.68;4.32;;;15.30;60.10;;;;;;4803070;29;20047;-50
2022/10/12 11:42:31;;;;;;;7.53;4.53;;;15.40;59.50;;;;;;4802316;29;20062;-50
2022/10/12 11:45:01;;;;;;;5.80;3.38;;;15.50;59.10;;;;;;4798908;29;20059;-51
2022/10/12 11:47:37;;;;;;;15.80;6.75;;;15.60;59.10;;;;;;4804155;29;20059;-50
2022/10/12 11:50:24;;;;;;;6.60;3.72;;;15.70;58.20;;;;;;4800020;29;20153;-53
2022/10/12 11:52:53;;;;;;;5.57;3.25;;;15.80;58.20;;;;;;4798997;29;20671;-52
2022/10/12 11:55:30;;;;;;;9.00;2.65;;;15.90;58.10;;;;;;4800655;29;20039;-52
2022/10/12 11:58:03;;;;;;;6.07;2.95;;;16.10;57.70;;;;;;4802844;29;20401;-51
2022/10/12 12:00:50;;;;;;;6.65;3.72;;;16.20;57.80;;;;;;4799885;29;20039;-53
2022/10/12 12:03:58;;;;;;;8.73;3.20;;;16.30;57.80;;;;;;4801967;29;20061;-54
2022/10/12 12:06:44;;;;;;;7.60;3.08;;;16.50;57.00;;;;;;4802309;29;20476;-53
2022/10/12 12:09:38;;;;;;;8.20;3.25;;;16.60;56.80;;;;;;4803049;29;20046;-52
2022/10/12 12:12:21;;;;;;;4.32;2.63;;;16.80;57.00;;;;;;4803144;29;20042;-51
2022/10/12 12:14:59;;;;;;;7.00;3.17;;;16.80;56.50;;;;;;4798192;29;20274;-50
2022/10/12 12:17:29;;;;;;;6.43;2.70;;;17.00;57.10;;;;;;4802124;29;20047;-52
2022/10/12 12:20:00;;;;;;;7.63;2.75;;;17.10;56.90;;;;;;4804335;29;20066;-54
2022/10/12 12:22:47;;;;;;;5.63;3.22;;;17.10;56.60;;;;;;4799264;29;20057;-53
2022/10/12 12:25:22;;;;;;;6.95;2.92;;;17.20;56.40;;;;;;4802683;29;20046;-52
2022/10/12 12:28:04;;;;;;;5.13;3.03;;;17.30;56.40;;;;;;4802433;29;20535;-55
2022/10/12 12:30:37;;;;;;;6.03;3.42;;;17.40;56.70;;;;;;4801634;29;20047;-52
2022/10/12 12:33:19;;;;;;;5.95;2.88;;;17.40;56.20;;;;;;4794981;29;20404;-51
2022/10/12 12:35:53;;;;;;;7.85;2.88;;;17.50;56.70;;;;;;4801969;29;20117;-53
2022/10/12 12:38:45;;;;;;;6.28;3.10;;;17.50;56.10;;;;;;4802881;29;20046;-51
2022/10/12 12:41:20;;;;;;;7.95;3.08;;;17.70;56.10;;;;;;4798891;29;20086;-54
2022/10/12 12:43:55;;;;;;;8.43;3.08;;;17.80;56.00;;;;;;4800668;29;20054;-54
2022/10/12 12:46:23;;;;;;;5.05;2.95;;;17.90;55.60;;;;;;4799398;29;20064;-54
2022/10/12 12:48:50;;;;;;;6.28;3.58;;;18.00;55.80;;;;;;4802242;29;20066;-53
2022/10/12 12:51:24;;;;;;;5.65;3.05;;;18.20;55.80;;;;;;4797365;29;20051;-52
2022/10/12 12:54:02;;;;;;;7.68;2.88;;;18.30;55.20;;;;;;4801710;29;20531;-54
2022/10/12 12:56:43;;;;;;;12.13;2.42;;;18.40;54.80;;;;;;4801396;29;20046;-55
2022/10/12 12:59:38;;;;;;;7.53;3.15;;;18.50;54.90;;;;;;4802835;29;20047;-53
2022/10/12 13:02:30;;;;;;;10.00;2.78;;;18.70;54.80;;;;;;4799962;29;20051;-53
2022/10/12 13:05:29;;;;;;;5.80;2.70;;;18.90;54.70;;;;;;4803069;29;20129;-53
2022/10/12 13:08:17;;;;;;;4.50;2.30;;;18.90;54.10;;;;;;4782334;29;20063;-55
2022/10/12 13:11:19;;;;;;;4.47;2.78;;;19.10;53.60;;;;;;4797499;29;20052;-54
2022/10/12 13:13:54;;;;;;;4.40;3.03;;;19.20;53.60;;;;;;4800055;29;20081;-54
2022/10/12 13:16:48;;;;;;;6.65;2.97;;;19.30;53.70;;;;;;4810490;29;20050;-49
2022/10/12 13:19:36;;;;;;;6.90;2.80;;;19.30;52.60;;;;;;4800451;29;20513;-51